sensor_id;sensor_type;location;lat;lon;timestamp;temperature;humidity
51383;DHT22;37475;43.358;1.248;2023-08-24T00:01:10;26.10;62.00
51383;DHT22;37475;43.358;1.248;2023-08-24T00:03:38;26.10;62.20
51383;DHT22;37475;43.358;1.248;2023-08-24T00:06:05;26.20;61.30
51383;DHT22;37475;43.358;1.248;2023-08-24T00:08:31;26.30;62.20
51383;DHT22;37475;43.358;1.248;2023-08-24T00:10:58;26.40;60.70
51383;DHT22;37475;43.358;1.248;2023-08-24T00:13:24;26.50;60.60
51383;DHT22;37475;43.358;1.248;2023-08-24T00:15:50;26.50;60.80
51383;DHT22;37475;43.358;1.248;2023-08-24T00:18:16;26.50;61.90
51383;DHT22;37475;43.358;1.248;2023-08-24T00:20:43;26.20;61.60
51383;DHT22;37475;43.358;1.248;2023-08-24T00:23:09;26.20;61.00
51383;DHT22;37475;43.358;1.248;2023-08-24T00:25:35;26.30;60.50
51383;DHT22;37475;43.358;1.248;2023-08-24T00:28:01;26.30;60.60
51383;DHT22;37475;43.358;1.248;2023-08-24T00:30:26;26.10;61.80
51383;DHT22;37475;43.358;1.248;2023-08-24T00:32:52;25.80;62.40
51383;DHT22;37475;43.358;1.248;2023-08-24T00:35:18;26.00;61.80
51383;DHT22;37475;43.358;1.248;2023-08-24T00:37:44;26.10;61.90
51383;DHT22;37475;43.358;1.248;2023-08-24T00:40:10;26.10;61.80
51383;DHT22;37475;43.358;1.248;2023-08-24T00:42:41;26.10;61.50
51383;DHT22;37475;43.358;1.248;2023-08-24T00:45:10;26.20;62.00
51383;DHT22;37475;43.358;1.248;2023-08-24T00:47:47;26.20;62.80
51383;DHT22;37475;43.358;1.248;2023-08-24T00:50:14;26.10;61.30
51383;DHT22;37475;43.358;1.248;2023-08-24T00:52:42;26.20;61.00
51383;DHT22;37475;43.358;1.248;2023-08-24T00:55:08;26.20;61.30
51383;DHT22;37475;43.358;1.248;2023-08-24T00:57:39;26.10;62.10
51383;DHT22;37475;43.358;1.248;2023-08-24T01:00:07;25.90;62.90
51383;DHT22;37475;43.358;1.248;2023-08-24T01:02:37;25.40;63.80
51383;DHT22;37475;43.358;1.248;2023-08-24T01:05:03;25.20;65.60
51383;DHT22;37475;43.358;1.248;2023-08-24T01:07:31;25.20;66.50
51383;DHT22;37475;43.358;1.248;2023-08-24T01:09:58;25.30;65.20
51383;DHT22;37475;43.358;1.248;2023-08-24T01:15:25;25.20;66.10
51383;DHT22;37475;43.358;1.248;2023-08-24T01:18:00;25.30;65.80
51383;DHT22;37475;43.358;1.248;2023-08-24T01:20:30;25.40;65.50
51383;DHT22;37475;43.358;1.248;2023-08-24T01:26:12;25.50;64.30
51383;DHT22;37475;43.358;1.248;2023-08-24T01:28:41;25.60;63.70
51383;DHT22;37475;43.358;1.248;2023-08-24T01:31:08;25.80;63.90
51383;DHT22;37475;43.358;1.248;2023-08-24T01:33:34;25.80;63.40
51383;DHT22;37475;43.358;1.248;2023-08-24T01:36:00;25.80;63.00
51383;DHT22;37475;43.358;1.248;2023-08-24T01:38:27;25.90;63.40
51383;DHT22;37475;43.358;1.248;2023-08-24T01:43:26;25.90;61.80
51383;DHT22;37475;43.358;1.248;2023-08-24T01:45:56;26.00;61.40
51383;DHT22;37475;43.358;1.248;2023-08-24T01:48:24;26.00;61.40
51383;DHT22;37475;43.358;1.248;2023-08-24T01:50:51;26.10;61.50
51383;DHT22;37475;43.358;1.248;2023-08-24T01:53:17;26.00;61.50
51383;DHT22;37475;43.358;1.248;2023-08-24T01:55:45;26.00;61.30
51383;DHT22;37475;43.358;1.248;2023-08-24T01:58:11;25.60;63.10
51383;DHT22;37475;43.358;1.248;2023-08-24T02:00:37;25.60;62.90
51383;DHT22;37475;43.358;1.248;2023-08-24T02:03:03;25.50;63.70
51383;DHT22;37475;43.358;1.248;2023-08-24T02:05:29;25.50;63.30
51383;DHT22;37475;43.358;1.248;2023-08-24T02:07:55;25.60;62.90
51383;DHT22;37475;43.358;1.248;2023-08-24T02:10:22;25.50;63.00
51383;DHT22;37475;43.358;1.248;2023-08-24T02:12:48;25.60;63.50
51383;DHT22;37475;43.358;1.248;2023-08-24T02:15:14;25.60;62.50
51383;DHT22;37475;43.358;1.248;2023-08-24T02:17:40;25.40;63.70
51383;DHT22;37475;43.358;1.248;2023-08-24T02:20:06;25.10;65.20
51383;DHT22;37475;43.358;1.248;2023-08-24T02:22:34;25.00;65.10
51383;DHT22;37475;43.358;1.248;2023-08-24T02:25:00;25.10;65.20
51383;DHT22;37475;43.358;1.248;2023-08-24T02:27:27;25.10;65.00
51383;DHT22;37475;43.358;1.248;2023-08-24T02:29:53;25.00;65.40
51383;DHT22;37475;43.358;1.248;2023-08-24T02:32:19;24.90;65.80
51383;DHT22;37475;43.358;1.248;2023-08-24T02:34:45;24.80;66.50
51383;DHT22;37475;43.358;1.248;2023-08-24T02:37:11;24.80;66.70
51383;DHT22;37475;43.358;1.248;2023-08-24T02:39:37;24.60;66.50
51383;DHT22;37475;43.358;1.248;2023-08-24T02:42:02;24.60;67.30
51383;DHT22;37475;43.358;1.248;2023-08-24T02:44:28;24.50;68.10
51383;DHT22;37475;43.358;1.248;2023-08-24T02:46:54;24.60;66.80
51383;DHT22;37475;43.358;1.248;2023-08-24T02:49:20;24.70;66.70
51383;DHT22;37475;43.358;1.248;2023-08-24T02:51:46;24.70;66.60
51383;DHT22;37475;43.358;1.248;2023-08-24T02:54:12;24.70;67.60
51383;DHT22;37475;43.358;1.248;2023-08-24T02:56:37;24.70;67.80
51383;DHT22;37475;43.358;1.248;2023-08-24T02:59:03;24.70;67.80
51383;DHT22;37475;43.358;1.248;2023-08-24T03:01:29;24.70;66.70
51383;DHT22;37475;43.358;1.248;2023-08-24T03:03:55;24.80;66.90
51383;DHT22;37475;43.358;1.248;2023-08-24T03:06:21;24.50;68.10
51383;DHT22;37475;43.358;1.248;2023-08-24T03:08:49;24.60;67.60
51383;DHT22;37475;43.358;1.248;2023-08-24T03:11:15;24.50;69.00
51383;DHT22;37475;43.358;1.248;2023-08-24T03:13:41;24.40;68.30
51383;DHT22;37475;43.358;1.248;2023-08-24T03:16:07;24.50;68.70
51383;DHT22;37475;43.358;1.248;2023-08-24T03:18:33;24.50;69.20
51383;DHT22;37475;43.358;1.248;2023-08-24T03:21:00;24.40;69.50
51383;DHT22;37475;43.358;1.248;2023-08-24T03:23:26;24.40;69.60
51383;DHT22;37475;43.358;1.248;2023-08-24T03:25:52;24.50;69.50
51383;DHT22;37475;43.358;1.248;2023-08-24T03:28:18;24.30;69.60
51383;DHT22;37475;43.358;1.248;2023-08-24T03:30:51;24.30;69.10
51383;DHT22;37475;43.358;1.248;2023-08-24T03:33:17;24.40;69.40
51383;DHT22;37475;43.358;1.248;2023-08-24T03:35:43;24.30;69.10
51383;DHT22;37475;43.358;1.248;2023-08-24T03:38:09;24.20;69.80
51383;DHT22;37475;43.358;1.248;2023-08-24T03:40:35;24.10;70.20
51383;DHT22;37475;43.358;1.248;2023-08-24T03:43:02;24.00;70.80
51383;DHT22;37475;43.358;1.248;2023-08-24T03:45:28;23.80;70.30
51383;DHT22;37475;43.358;1.248;2023-08-24T03:47:54;23.90;70.30
51383;DHT22;37475;43.358;1.248;2023-08-24T03:50:20;23.90;70.20
51383;DHT22;37475;43.358;1.248;2023-08-24T03:52:49;23.90;70.30
51383;DHT22;37475;43.358;1.248;2023-08-24T03:55:15;23.90;70.80
51383;DHT22;37475;43.358;1.248;2023-08-24T03:57:41;23.90;70.10
51383;DHT22;37475;43.358;1.248;2023-08-24T04:00:08;24.00;69.90
51383;DHT22;37475;43.358;1.248;2023-08-24T04:02:41;24.00;69.70
51383;DHT22;37475;43.358;1.248;2023-08-24T04:05:07;24.00;70.10
51383;DHT22;37475;43.358;1.248;2023-08-24T04:07:34;24.00;70.10
51383;DHT22;37475;43.358;1.248;2023-08-24T04:10:02;24.00;70.10
51383;DHT22;37475;43.358;1.248;2023-08-24T04:12:33;24.00;70.00
51383;DHT22;37475;43.358;1.248;2023-08-24T04:14:59;23.70;71.40
51383;DHT22;37475;43.358;1.248;2023-08-24T04:17:25;23.60;71.50
51383;DHT22;37475;43.358;1.248;2023-08-24T04:19:51;23.40;72.90
51383;DHT22;37475;43.358;1.248;2023-08-24T04:22:18;23.30;72.90
51383;DHT22;37475;43.358;1.248;2023-08-24T04:24:43;23.30;73.90
51383;DHT22;37475;43.358;1.248;2023-08-24T04:27:09;23.30;73.10
51383;DHT22;37475;43.358;1.248;2023-08-24T04:29:35;23.30;72.60
51383;DHT22;37475;43.358;1.248;2023-08-24T04:32:01;23.40;72.70
51383;DHT22;37475;43.358;1.248;2023-08-24T04:34:26;23.20;73.90
51383;DHT22;37475;43.358;1.248;2023-08-24T04:36:52;23.10;74.30
51383;DHT22;37475;43.358;1.248;2023-08-24T04:39:20;22.70;76.20
51383;DHT22;37475;43.358;1.248;2023-08-24T04:41:45;22.60;76.30
51383;DHT22;37475;43.358;1.248;2023-08-24T04:44:11;22.80;76.20
51383;DHT22;37475;43.358;1.248;2023-08-24T04:46:37;22.80;75.60
51383;DHT22;37475;43.358;1.248;2023-08-24T04:49:04;22.90;75.50
51383;DHT22;37475;43.358;1.248;2023-08-24T04:51:29;23.00;75.10
51383;DHT22;37475;43.358;1.248;2023-08-24T04:53:55;23.00;74.90
51383;DHT22;37475;43.358;1.248;2023-08-24T04:56:21;23.10;74.30
51383;DHT22;37475;43.358;1.248;2023-08-24T04:58:56;23.10;73.60
51383;DHT22;37475;43.358;1.248;2023-08-24T05:01:23;23.20;73.40
51383;DHT22;37475;43.358;1.248;2023-08-24T05:03:53;23.30;72.90
51383;DHT22;37475;43.358;1.248;2023-08-24T05:06:19;23.40;73.30
51383;DHT22;37475;43.358;1.248;2023-08-24T05:08:45;23.30;73.50
51383;DHT22;37475;43.358;1.248;2023-08-24T05:11:13;23.20;74.10
51383;DHT22;37475;43.358;1.248;2023-08-24T05:13:42;23.10;74.50
51383;DHT22;37475;43.358;1.248;2023-08-24T05:16:12;23.00;74.80
51383;DHT22;37475;43.358;1.248;2023-08-24T05:18:39;22.80;75.50
51383;DHT22;37475;43.358;1.248;2023-08-24T05:21:05;22.60;76.30
51383;DHT22;37475;43.358;1.248;2023-08-24T05:23:35;22.50;76.90
51383;DHT22;37475;43.358;1.248;2023-08-24T05:26:02;22.50;76.30
51383;DHT22;37475;43.358;1.248;2023-08-24T05:28:29;22.60;76.80
51383;DHT22;37475;43.358;1.248;2023-08-24T05:30:56;22.60;76.60
51383;DHT22;37475;43.358;1.248;2023-08-24T05:33:23;22.80;76.10
51383;DHT22;37475;43.358;1.248;2023-08-24T05:35:50;22.80;75.40
51383;DHT22;37475;43.358;1.248;2023-08-24T05:38:17;22.60;76.20
51383;DHT22;37475;43.358;1.248;2023-08-24T05:40:46;22.20;77.40
51383;DHT22;37475;43.358;1.248;2023-08-24T05:43:13;22.10;78.00
51383;DHT22;37475;43.358;1.248;2023-08-24T05:45:39;22.20;78.10
51383;DHT22;37475;43.358;1.248;2023-08-24T05:48:06;22.40;77.60
51383;DHT22;37475;43.358;1.248;2023-08-24T05:50:33;22.50;77.10
51383;DHT22;37475;43.358;1.248;2023-08-24T05:52:59;22.70;75.90
51383;DHT22;37475;43.358;1.248;2023-08-24T05:55:24;22.90;75.60
51383;DHT22;37475;43.358;1.248;2023-08-24T05:57:50;23.00;75.50
51383;DHT22;37475;43.358;1.248;2023-08-24T06:00:16;23.10;75.10
51383;DHT22;37475;43.358;1.248;2023-08-24T06:02:42;23.10;74.70
51383;DHT22;37475;43.358;1.248;2023-08-24T06:05:08;23.10;75.00
51383;DHT22;37475;43.358;1.248;2023-08-24T06:07:35;23.10;75.30
51383;DHT22;37475;43.358;1.248;2023-08-24T06:10:01;23.20;74.90
51383;DHT22;37475;43.358;1.248;2023-08-24T06:12:27;23.30;74.70
51383;DHT22;37475;43.358;1.248;2023-08-24T06:14:53;23.30;75.20
51383;DHT22;37475;43.358;1.248;2023-08-24T06:17:19;23.30;75.10
51383;DHT22;37475;43.358;1.248;2023-08-24T06:19:45;23.40;75.50
51383;DHT22;37475;43.358;1.248;2023-08-24T06:22:10;23.50;75.00
51383;DHT22;37475;43.358;1.248;2023-08-24T06:24:36;23.50;74.60
51383;DHT22;37475;43.358;1.248;2023-08-24T06:27:02;23.70;73.90
51383;DHT22;37475;43.358;1.248;2023-08-24T06:29:31;23.80;73.50
51383;DHT22;37475;43.358;1.248;2023-08-24T06:31:58;23.90;74.00
51383;DHT22;37475;43.358;1.248;2023-08-24T06:34:23;24.00;73.50
51383;DHT22;37475;43.358;1.248;2023-08-24T06:36:50;24.10;73.10
51383;DHT22;37475;43.358;1.248;2023-08-24T06:39:16;24.10;72.80
51383;DHT22;37475;43.358;1.248;2023-08-24T06:41:42;24.30;72.20
51383;DHT22;37475;43.358;1.248;2023-08-24T06:44:08;24.50;71.70
51383;DHT22;37475;43.358;1.248;2023-08-24T06:46:34;24.60;71.20
51383;DHT22;37475;43.358;1.248;2023-08-24T06:49:00;24.80;70.50
51383;DHT22;37475;43.358;1.248;2023-08-24T06:51:26;24.90;70.00
51383;DHT22;37475;43.358;1.248;2023-08-24T06:53:52;25.00;69.30
51383;DHT22;37475;43.358;1.248;2023-08-24T06:56:17;25.30;68.10
51383;DHT22;37475;43.358;1.248;2023-08-24T06:58:44;25.50;67.50
51383;DHT22;37475;43.358;1.248;2023-08-24T07:01:11;25.60;67.20
51383;DHT22;37475;43.358;1.248;2023-08-24T07:03:37;25.80;67.40
51383;DHT22;37475;43.358;1.248;2023-08-24T07:06:07;26.00;66.60
51383;DHT22;37475;43.358;1.248;2023-08-24T07:08:34;26.20;65.30
51383;DHT22;37475;43.358;1.248;2023-08-24T07:11:01;26.50;64.50
51383;DHT22;37475;43.358;1.248;2023-08-24T07:13:28;26.60;62.30
51383;DHT22;37475;43.358;1.248;2023-08-24T07:15:54;27.00;61.70
51383;DHT22;37475;43.358;1.248;2023-08-24T07:18:20;27.40;58.70
51383;DHT22;37475;43.358;1.248;2023-08-24T07:20:47;27.80;57.30
51383;DHT22;37475;43.358;1.248;2023-08-24T07:23:12;28.10;55.40
51383;DHT22;37475;43.358;1.248;2023-08-24T07:25:38;28.40;54.60
51383;DHT22;37475;43.358;1.248;2023-08-24T07:28:04;28.60;54.10
51383;DHT22;37475;43.358;1.248;2023-08-24T07:30:31;28.80;54.10
51383;DHT22;37475;43.358;1.248;2023-08-24T07:32:57;28.90;52.90
51383;DHT22;37475;43.358;1.248;2023-08-24T07:35:23;29.00;52.80
51383;DHT22;37475;43.358;1.248;2023-08-24T07:37:50;29.10;51.50
51383;DHT22;37475;43.358;1.248;2023-08-24T07:40:17;29.20;51.40
51383;DHT22;37475;43.358;1.248;2023-08-24T07:42:48;29.30;51.80
51383;DHT22;37475;43.358;1.248;2023-08-24T07:45:18;29.50;50.60
51383;DHT22;37475;43.358;1.248;2023-08-24T07:47:44;29.50;51.00
51383;DHT22;37475;43.358;1.248;2023-08-24T07:50:11;29.60;50.60
51383;DHT22;37475;43.358;1.248;2023-08-24T07:52:38;29.70;50.20
51383;DHT22;37475;43.358;1.248;2023-08-24T07:55:05;29.80;50.00
51383;DHT22;37475;43.358;1.248;2023-08-24T07:57:33;30.00;49.30
51383;DHT22;37475;43.358;1.248;2023-08-24T07:59:59;30.00;49.70
51383;DHT22;37475;43.358;1.248;2023-08-24T08:02:25;30.10;49.20
51383;DHT22;37475;43.358;1.248;2023-08-24T08:04:51;30.20;48.70
51383;DHT22;37475;43.358;1.248;2023-08-24T08:07:22;30.50;50.10
51383;DHT22;37475;43.358;1.248;2023-08-24T08:09:48;30.50;49.00
51383;DHT22;37475;43.358;1.248;2023-08-24T08:12:14;30.70;48.80
51383;DHT22;37475;43.358;1.248;2023-08-24T08:14:40;30.70;47.60
51383;DHT22;37475;43.358;1.248;2023-08-24T08:17:06;30.70;47.70
51383;DHT22;37475;43.358;1.248;2023-08-24T08:19:32;30.90;47.30
51383;DHT22;37475;43.358;1.248;2023-08-24T08:21:57;31.00;48.00
51383;DHT22;37475;43.358;1.248;2023-08-24T08:24:23;31.20;46.20
51383;DHT22;37475;43.358;1.248;2023-08-24T08:26:49;31.00;46.50
51383;DHT22;37475;43.358;1.248;2023-08-24T08:29:15;31.00;46.60
51383;DHT22;37475;43.358;1.248;2023-08-24T08:31:41;31.20;46.60
51383;DHT22;37475;43.358;1.248;2023-08-24T08:34:07;31.10;46.20
51383;DHT22;37475;43.358;1.248;2023-08-24T08:36:33;31.30;46.80
51383;DHT22;37475;43.358;1.248;2023-08-24T08:38:59;31.60;45.50
51383;DHT22;37475;43.358;1.248;2023-08-24T08:41:29;31.80;45.70
51383;DHT22;37475;43.358;1.248;2023-08-24T08:43:56;32.00;45.50
51383;DHT22;37475;43.358;1.248;2023-08-24T08:46:22;31.90;44.50
51383;DHT22;37475;43.358;1.248;2023-08-24T08:48:51;32.00;44.70
51383;DHT22;37475;43.358;1.248;2023-08-24T08:51:18;32.10;44.90
51383;DHT22;37475;43.358;1.248;2023-08-24T08:53:44;32.10;44.00
51383;DHT22;37475;43.358;1.248;2023-08-24T08:56:10;32.20;44.90
51383;DHT22;37475;43.358;1.248;2023-08-24T08:58:36;32.30;44.40
51383;DHT22;37475;43.358;1.248;2023-08-24T09:01:03;32.30;43.90
51383;DHT22;37475;43.358;1.248;2023-08-24T09:03:31;32.50;43.60
51383;DHT22;37475;43.358;1.248;2023-08-24T09:05:58;32.80;43.20
51383;DHT22;37475;43.358;1.248;2023-08-24T09:08:25;33.00;42.90
51383;DHT22;37475;43.358;1.248;2023-08-24T09:10:51;33.10;42.60
51383;DHT22;37475;43.358;1.248;2023-08-24T09:13:18;33.20;42.70
51383;DHT22;37475;43.358;1.248;2023-08-24T09:15:43;33.30;42.40
51383;DHT22;37475;43.358;1.248;2023-08-24T09:18:09;33.50;42.60
51383;DHT22;37475;43.358;1.248;2023-08-24T09:20:35;33.60;42.20
51383;DHT22;37475;43.358;1.248;2023-08-24T09:23:01;33.80;41.70
51383;DHT22;37475;43.358;1.248;2023-08-24T09:25:27;33.50;41.90
51383;DHT22;37475;43.358;1.248;2023-08-24T09:28:01;33.70;41.50
51383;DHT22;37475;43.358;1.248;2023-08-24T09:30:31;34.00;41.70
51383;DHT22;37475;43.358;1.248;2023-08-24T09:33:09;34.00;41.40
51383;DHT22;37475;43.358;1.248;2023-08-24T09:35:36;34.00;40.90
51383;DHT22;37475;43.358;1.248;2023-08-24T09:40:50;34.50;39.60
51383;DHT22;37475;43.358;1.248;2023-08-24T09:43:17;34.60;40.50
51383;DHT22;37475;43.358;1.248;2023-08-24T09:45:49;34.80;39.80
51383;DHT22;37475;43.358;1.248;2023-08-24T09:53:15;34.70;39.70
51383;DHT22;37475;43.358;1.248;2023-08-24T09:55:54;35.10;38.70
51383;DHT22;37475;43.358;1.248;2023-08-24T09:58:22;35.30;38.40
51383;DHT22;37475;43.358;1.248;2023-08-24T10:00:49;35.30;38.40
51383;DHT22;37475;43.358;1.248;2023-08-24T10:03:17;35.60;37.90
51383;DHT22;37475;43.358;1.248;2023-08-24T10:05:52;35.90;37.60
51383;DHT22;37475;43.358;1.248;2023-08-24T10:08:21;35.70;38.30
51383;DHT22;37475;43.358;1.248;2023-08-24T10:10:56;35.80;39.00
51383;DHT22;37475;43.358;1.248;2023-08-24T10:16:14;36.30;37.40
51383;DHT22;37475;43.358;1.248;2023-08-24T10:18:41;36.70;35.50
51383;DHT22;37475;43.358;1.248;2023-08-24T10:21:08;36.90;35.50
51383;DHT22;37475;43.358;1.248;2023-08-24T10:23:35;36.90;35.60
51383;DHT22;37475;43.358;1.248;2023-08-24T10:26:06;36.80;34.60
51383;DHT22;37475;43.358;1.248;2023-08-24T10:28:33;36.70;33.80
51383;DHT22;37475;43.358;1.248;2023-08-24T10:30:59;36.90;34.80
51383;DHT22;37475;43.358;1.248;2023-08-24T10:33:27;37.00;35.20
51383;DHT22;37475;43.358;1.248;2023-08-24T10:35:53;37.00;34.60
51383;DHT22;37475;43.358;1.248;2023-08-24T10:38:24;37.30;34.80
51383;DHT22;37475;43.358;1.248;2023-08-24T10:40:54;37.40;34.00
51383;DHT22;37475;43.358;1.248;2023-08-24T10:43:21;37.10;34.90
51383;DHT22;37475;43.358;1.248;2023-08-24T10:48:24;37.60;34.40
51383;DHT22;37475;43.358;1.248;2023-08-24T10:51:20;37.60;33.10
51383;DHT22;37475;43.358;1.248;2023-08-24T10:56:37;38.00;32.00
51383;DHT22;37475;43.358;1.248;2023-08-24T10:59:15;38.50;32.50
51383;DHT22;37475;43.358;1.248;2023-08-24T11:02:04;38.60;32.70
51383;DHT22;37475;43.358;1.248;2023-08-24T11:04:29;38.70;31.90
51383;DHT22;37475;43.358;1.248;2023-08-24T11:06:57;39.00;31.30
51383;DHT22;37475;43.358;1.248;2023-08-24T11:09:24;38.90;32.80
51383;DHT22;37475;43.358;1.248;2023-08-24T11:12:01;39.30;32.20
51383;DHT22;37475;43.358;1.248;2023-08-24T11:14:29;39.40;30.70
51383;DHT22;37475;43.358;1.248;2023-08-24T11:17:01;39.30;31.00
51383;DHT22;37475;43.358;1.248;2023-08-24T11:19:52;39.10;31.40
51383;DHT22;37475;43.358;1.248;2023-08-24T11:22:18;39.40;31.30
51383;DHT22;37475;43.358;1.248;2023-08-24T11:24:45;39.90;30.50
51383;DHT22;37475;43.358;1.248;2023-08-24T11:27:11;40.40;30.10
51383;DHT22;37475;43.358;1.248;2023-08-24T11:29:36;40.60;29.40
51383;DHT22;37475;43.358;1.248;2023-08-24T11:32:03;40.70;29.80
51383;DHT22;37475;43.358;1.248;2023-08-24T11:34:30;40.50;30.40
51383;DHT22;37475;43.358;1.248;2023-08-24T11:36:56;40.90;29.90
51383;DHT22;37475;43.358;1.248;2023-08-24T11:39:22;40.60;30.00
51383;DHT22;37475;43.358;1.248;2023-08-24T11:42:19;40.50;29.30
51383;DHT22;37475;43.358;1.248;2023-08-24T11:44:47;40.90;28.50
51383;DHT22;37475;43.358;1.248;2023-08-24T11:47:14;40.90;28.60
51383;DHT22;37475;43.358;1.248;2023-08-24T11:49:40;40.90;28.10
51383;DHT22;37475;43.358;1.248;2023-08-24T11:52:06;41.10;27.90
51383;DHT22;37475;43.358;1.248;2023-08-24T11:54:32;40.60;29.40
51383;DHT22;37475;43.358;1.248;2023-08-24T11:56:58;40.60;27.80
51383;DHT22;37475;43.358;1.248;2023-08-24T11:59:24;40.90;28.40
51383;DHT22;37475;43.358;1.248;2023-08-24T12:01:51;40.80;28.00
51383;DHT22;37475;43.358;1.248;2023-08-24T12:04:20;41.10;27.30
51383;DHT22;37475;43.358;1.248;2023-08-24T12:06:46;41.20;27.30
51383;DHT22;37475;43.358;1.248;2023-08-24T12:09:12;41.20;27.70
51383;DHT22;37475;43.358;1.248;2023-08-24T12:11:38;41.40;27.10
51383;DHT22;37475;43.358;1.248;2023-08-24T12:14:05;41.30;27.20
51383;DHT22;37475;43.358;1.248;2023-08-24T12:16:33;41.50;27.20
51383;DHT22;37475;43.358;1.248;2023-08-24T12:18:59;42.00;27.20
51383;DHT22;37475;43.358;1.248;2023-08-24T12:21:28;41.80;26.60
51383;DHT22;37475;43.358;1.248;2023-08-24T12:24:06;41.60;26.90
51383;DHT22;37475;43.358;1.248;2023-08-24T12:26:34;42.00;26.70
51383;DHT22;37475;43.358;1.248;2023-08-24T12:29:04;42.40;27.30
51383;DHT22;37475;43.358;1.248;2023-08-24T12:31:31;42.00;27.20
51383;DHT22;37475;43.358;1.248;2023-08-24T12:34:03;42.50;26.80
51383;DHT22;37475;43.358;1.248;2023-08-24T12:36:32;42.70;26.70
51383;DHT22;37475;43.358;1.248;2023-08-24T12:38:58;42.60;26.40
51383;DHT22;37475;43.358;1.248;2023-08-24T12:41:24;42.40;26.90
51383;DHT22;37475;43.358;1.248;2023-08-24T12:43:51;42.60;26.80
51383;DHT22;37475;43.358;1.248;2023-08-24T12:46:17;43.10;26.10
51383;DHT22;37475;43.358;1.248;2023-08-24T12:48:43;43.20;26.00
51383;DHT22;37475;43.358;1.248;2023-08-24T12:51:09;43.50;26.00
51383;DHT22;37475;43.358;1.248;2023-08-24T12:53:34;43.50;25.70
51383;DHT22;37475;43.358;1.248;2023-08-24T12:56:00;43.10;27.30
51383;DHT22;37475;43.358;1.248;2023-08-24T12:58:26;43.30;25.10
51383;DHT22;37475;43.358;1.248;2023-08-24T13:00:52;43.60;25.50
51383;DHT22;37475;43.358;1.248;2023-08-24T13:03:17;43.80;25.60
51383;DHT22;37475;43.358;1.248;2023-08-24T13:05:43;44.20;25.40
51383;DHT22;37475;43.358;1.248;2023-08-24T13:08:09;44.10;24.60
51383;DHT22;37475;43.358;1.248;2023-08-24T13:10:35;44.00;25.40
51383;DHT22;37475;43.358;1.248;2023-08-24T13:13:02;44.10;24.50
51383;DHT22;37475;43.358;1.248;2023-08-24T13:15:29;44.00;24.50
51383;DHT22;37475;43.358;1.248;2023-08-24T13:17:54;44.00;24.80
51383;DHT22;37475;43.358;1.248;2023-08-24T13:20:21;44.30;24.40
51383;DHT22;37475;43.358;1.248;2023-08-24T13:22:47;43.70;24.60
51383;DHT22;37475;43.358;1.248;2023-08-24T13:25:13;43.70;24.40
51383;DHT22;37475;43.358;1.248;2023-08-24T13:27:38;44.00;24.50
51383;DHT22;37475;43.358;1.248;2023-08-24T13:30:05;44.20;23.80
51383;DHT22;37475;43.358;1.248;2023-08-24T13:32:31;44.10;24.70
51383;DHT22;37475;43.358;1.248;2023-08-24T13:34:57;44.40;24.40
51383;DHT22;37475;43.358;1.248;2023-08-24T13:37:23;44.80;24.20
51383;DHT22;37475;43.358;1.248;2023-08-24T13:39:51;45.30;23.40
51383;DHT22;37475;43.358;1.248;2023-08-24T13:42:17;44.80;22.30
51383;DHT22;37475;43.358;1.248;2023-08-24T13:44:45;44.50;22.90
51383;DHT22;37475;43.358;1.248;2023-08-24T13:47:11;44.40;23.50
51383;DHT22;37475;43.358;1.248;2023-08-24T13:49:37;44.90;23.20
51383;DHT22;37475;43.358;1.248;2023-08-24T13:52:03;45.20;22.60
51383;DHT22;37475;43.358;1.248;2023-08-24T13:54:29;45.40;22.30
51383;DHT22;37475;43.358;1.248;2023-08-24T13:56:56;45.50;22.20
51383;DHT22;37475;43.358;1.248;2023-08-24T13:59:22;45.40;21.90
51383;DHT22;37475;43.358;1.248;2023-08-24T14:01:48;45.40;22.60
51383;DHT22;37475;43.358;1.248;2023-08-24T14:04:13;45.90;22.30
51383;DHT22;37475;43.358;1.248;2023-08-24T14:06:39;45.90;22.40
51383;DHT22;37475;43.358;1.248;2023-08-24T14:09:06;45.60;22.00
51383;DHT22;37475;43.358;1.248;2023-08-24T14:11:32;45.90;22.00
51383;DHT22;37475;43.358;1.248;2023-08-24T14:13:58;45.90;21.30
51383;DHT22;37475;43.358;1.248;2023-08-24T14:16:25;46.10;21.70
51383;DHT22;37475;43.358;1.248;2023-08-24T14:18:52;46.30;21.30
51383;DHT22;37475;43.358;1.248;2023-08-24T14:21:18;46.20;21.50
51383;DHT22;37475;43.358;1.248;2023-08-24T14:23:49;45.80;22.30
51383;DHT22;37475;43.358;1.248;2023-08-24T14:26:15;46.30;21.20
51383;DHT22;37475;43.358;1.248;2023-08-24T14:29:07;45.70;22.50
51383;DHT22;37475;43.358;1.248;2023-08-24T14:31:34;45.70;21.50
51383;DHT22;37475;43.358;1.248;2023-08-24T14:34:00;45.80;21.90
51383;DHT22;37475;43.358;1.248;2023-08-24T14:36:25;45.70;21.00
51383;DHT22;37475;43.358;1.248;2023-08-24T14:38:51;45.90;21.00
51383;DHT22;37475;43.358;1.248;2023-08-24T14:41:17;46.20;20.50
51383;DHT22;37475;43.358;1.248;2023-08-24T14:43:44;46.20;20.60
51383;DHT22;37475;43.358;1.248;2023-08-24T14:46:11;46.70;20.00
51383;DHT22;37475;43.358;1.248;2023-08-24T14:48:37;46.80;20.00
51383;DHT22;37475;43.358;1.248;2023-08-24T14:51:03;46.20;21.80
51383;DHT22;37475;43.358;1.248;2023-08-24T14:53:28;45.90;21.70
51383;DHT22;37475;43.358;1.248;2023-08-24T14:55:55;45.10;22.20
51383;DHT22;37475;43.358;1.248;2023-08-24T14:58:22;45.10;22.20
51383;DHT22;37475;43.358;1.248;2023-08-24T15:00:53;44.90;22.90
51383;DHT22;37475;43.358;1.248;2023-08-24T15:03:20;44.30;22.60
51383;DHT22;37475;43.358;1.248;2023-08-24T15:05:57;43.90;25.10
51383;DHT22;37475;43.358;1.248;2023-08-24T15:08:29;43.10;24.70
51383;DHT22;37475;43.358;1.248;2023-08-24T15:10:58;42.80;25.00
51383;DHT22;37475;43.358;1.248;2023-08-24T15:13:25;42.50;24.90
51383;DHT22;37475;43.358;1.248;2023-08-24T15:15:54;42.80;24.70
51383;DHT22;37475;43.358;1.248;2023-08-24T15:18:20;42.30;26.10
51383;DHT22;37475;43.358;1.248;2023-08-24T15:20:47;41.60;25.10
51383;DHT22;37475;43.358;1.248;2023-08-24T15:23:27;41.80;26.30
51383;DHT22;37475;43.358;1.248;2023-08-24T15:25:56;41.60;25.70
51383;DHT22;37475;43.358;1.248;2023-08-24T15:28:25;41.50;26.20
51383;DHT22;37475;43.358;1.248;2023-08-24T15:30:52;41.60;26.20
51383;DHT22;37475;43.358;1.248;2023-08-24T15:33:19;41.50;26.50
51383;DHT22;37475;43.358;1.248;2023-08-24T15:35:46;41.50;27.50
51383;DHT22;37475;43.358;1.248;2023-08-24T15:38:12;41.20;27.70
51383;DHT22;37475;43.358;1.248;2023-08-24T15:40:38;41.10;27.80
51383;DHT22;37475;43.358;1.248;2023-08-24T15:43:05;40.90;28.10
51383;DHT22;37475;43.358;1.248;2023-08-24T15:45:31;40.80;29.00
51383;DHT22;37475;43.358;1.248;2023-08-24T15:47:59;40.50;27.70
51383;DHT22;37475;43.358;1.248;2023-08-24T15:50:26;40.40;27.80
51383;DHT22;37475;43.358;1.248;2023-08-24T15:52:52;40.50;28.50
51383;DHT22;37475;43.358;1.248;2023-08-24T15:55:32;40.90;28.50